createdAt,value
2022-09-30T00:01:25.737Z,10.50
2022-09-30T00:03:57.235Z,10.60
2022-09-30T00:06:26.872Z,10.70
2022-09-30T00:08:58.081Z,10.60
2022-09-30T00:11:28.899Z,10.50
2022-09-30T00:14:01.073Z,10.50
2022-09-30T00:16:34.804Z,10.40
2022-09-30T00:19:04.813Z,10.30
2022-09-30T00:21:34.228Z,10.20
2022-09-30T00:24:02.099Z,10.20
2022-09-30T00:26:29.410Z,10.30
2022-09-30T00:28:59.336Z,10.40
2022-09-30T00:31:29.857Z,10.50
2022-09-30T00:34:09.123Z,10.40
2022-09-30T00:36:43.857Z,10.30
2022-09-30T00:39:29.881Z,10.40
2022-09-30T00:42:02.602Z,10.40
2022-09-30T00:44:52.698Z,10.50
2022-09-30T00:47:38.340Z,10.60
2022-09-30T00:50:34.041Z,10.60
2022-09-30T00:53:07.092Z,10.60
2022-09-30T00:55:36.939Z,10.40
2022-09-30T00:58:07.578Z,10.30
2022-09-30T01:00:34.833Z,10.20
2022-09-30T01:03:03.914Z,10.10
2022-09-30T01:05:33.223Z,10.10
2022-09-30T01:08:03.556Z,10.00
2022-09-30T01:10:30.650Z,10.10
2022-09-30T01:12:58.522Z,10.00
2022-09-30T01:15:44.014Z,10.00
2022-09-30T01:18:29.852Z,10.00
2022-09-30T01:21:32.877Z,10.00
2022-09-30T01:24:28.079Z,10.00
2022-09-30T01:27:04.900Z,10.10
2022-09-30T01:29:41.805Z,10.10
2022-09-30T01:32:24.097Z,10.10
2022-09-30T01:35:15.450Z,10.00
2022-09-30T01:38:12.690Z,10.00
2022-09-30T01:41:07.823Z,10.00
2022-09-30T01:43:50.918Z,10.00
2022-09-30T01:46:27.293Z,10.00
2022-09-30T01:49:04.536Z,10.00
2022-09-30T01:51:40.309Z,10.00
2022-09-30T01:54:48.253Z,9.90
2022-09-30T01:57:23.005Z,9.90
2022-09-30T02:00:08.141Z,9.80
2022-09-30T02:02:51.374Z,9.80
2022-09-30T02:05:41.648Z,9.90
2022-09-30T02:08:18.628Z,9.90
2022-09-30T02:11:01.607Z,9.90
2022-09-30T02:13:37.316Z,10.00
2022-09-30T02:16:13.236Z,10.10
2022-09-30T02:18:45.098Z,10.20
2022-09-30T02:21:14.618Z,10.20
2022-09-30T02:23:45.157Z,10.10
2022-09-30T02:26:31.415Z,10.10
2022-09-30T02:29:05.134Z,10.10
2022-09-30T02:31:35.998Z,10.10
2022-09-30T02:34:05.591Z,10.00
2022-09-30T02:36:38.321Z,9.90
2022-09-30T02:39:10.118Z,9.80
2022-09-30T02:41:44.927Z,9.70
2022-09-30T02:44:13.223Z,9.70
2022-09-30T02:47:07.357Z,9.60
2022-09-30T02:50:14.659Z,9.70
2022-09-30T02:53:19.761Z,9.70
2022-09-30T02:56:11.556Z,9.70
2022-09-30T02:58:40.338Z,9.60
2022-09-30T03:01:09.489Z,9.60
2022-09-30T03:03:48.835Z,9.50
2022-09-30T03:06:16.371Z,9.50
2022-09-30T03:08:43.374Z,9.50
2022-09-30T03:11:29.970Z,9.60
2022-09-30T03:14:19.270Z,9.70
2022-09-30T03:17:01.515Z,9.70
2022-09-30T03:19:31.565Z,9.70
2022-09-30T03:22:26.477Z,9.80
2022-09-30T03:25:18.860Z,9.80
2022-09-30T03:27:56.057Z,9.70
2022-09-30T03:30:28.345Z,9.50
2022-09-30T03:33:10.241Z,9.50
2022-09-30T03:35:37.025Z,9.50
2022-09-30T03:38:39.900Z,9.50
2022-09-30T03:41:11.681Z,9.70
2022-09-30T03:43:50.766Z,9.70
2022-09-30T03:46:38.557Z,9.60
2022-09-30T03:49:10.751Z,9.60
2022-09-30T03:51:39.903Z,9.60
2022-09-30T03:54:10.185Z,9.70
2022-09-30T03:56:42.263Z,9.70
2022-09-30T03:59:17.223Z,9.90
2022-09-30T04:01:44.096Z,9.70
2022-09-30T04:04:12.485Z,9.70
2022-09-30T04:06:39.403Z,9.70
2022-09-30T04:09:07.318Z,9.60
2022-09-30T04:11:36.123Z,9.60
2022-09-30T04:14:03.168Z,9.70
2022-09-30T04:16:31.816Z,9.60
2022-09-30T04:18:59.054Z,9.60
2022-09-30T04:21:28.820Z,9.40
2022-09-30T04:23:56.374Z,9.50
2022-09-30T04:26:23.235Z,9.40
2022-09-30T04:28:50.437Z,9.50
2022-09-30T04:31:19.042Z,9.50
2022-09-30T04:33:45.905Z,9.40
2022-09-30T04:36:15.095Z,9.30
2022-09-30T04:38:42.201Z,9.30
2022-09-30T04:41:17.935Z,9.20
2022-09-30T04:43:46.741Z,9.20
2022-09-30T04:46:18.731Z,9.20
2022-09-30T04:48:46.732Z,9.20
2022-09-30T04:51:15.087Z,9.20
2022-09-30T04:53:42.548Z,9.30
2022-09-30T04:56:10.068Z,9.40
2022-09-30T04:58:37.392Z,9.50
2022-09-30T05:01:08.730Z,9.40
2022-09-30T05:03:36.248Z,9.50
2022-09-30T05:06:04.748Z,9.40
2022-09-30T05:08:33.794Z,9.40
2022-09-30T05:11:03.440Z,9.20
2022-09-30T05:13:35.106Z,9.20
2022-09-30T05:16:02.701Z,9.10
2022-09-30T05:18:29.776Z,9.10
2022-09-30T05:20:58.027Z,9.20
2022-09-30T05:23:26.467Z,9.30
2022-09-30T05:25:53.898Z,9.40
2022-09-30T05:28:20.952Z,9.50
2022-09-30T05:30:49.899Z,9.50
2022-09-30T05:33:17.841Z,9.50
2022-09-30T05:35:44.816Z,9.50
2022-09-30T05:38:11.780Z,9.50
2022-09-30T05:40:39.550Z,9.50
2022-09-30T05:43:07.342Z,9.50
2022-09-30T05:45:34.867Z,9.50
2022-09-30T05:48:02.729Z,9.50
2022-09-30T05:50:31.054Z,9.60
2022-09-30T05:52:58.066Z,9.40
2022-09-30T05:55:25.025Z,9.30
2022-09-30T05:57:52.974Z,9.40
2022-09-30T06:00:20.261Z,9.40
2022-09-30T06:02:52.176Z,9.40
2022-09-30T06:05:19.419Z,9.30
2022-09-30T06:07:46.295Z,9.30
2022-09-30T06:10:13.430Z,9.30
2022-09-30T06:12:41.241Z,9.40
2022-09-30T06:15:09.341Z,9.60
2022-09-30T06:17:37.215Z,9.70
2022-09-30T06:20:06.726Z,9.70
2022-09-30T06:22:36.047Z,9.70
2022-09-30T06:25:06.950Z,9.70
2022-09-30T06:27:34.442Z,9.60
2022-09-30T06:30:01.244Z,9.50
2022-09-30T06:32:28.066Z,9.40
2022-09-30T06:34:55.863Z,9.40
2022-09-30T06:37:23.961Z,9.30
2022-09-30T06:39:51.196Z,9.40
2022-09-30T06:42:18.796Z,9.30
2022-09-30T06:44:52.801Z,9.40
2022-09-30T06:47:25.574Z,9.30
2022-09-30T06:49:58.653Z,9.30
2022-09-30T06:52:26.350Z,9.40
2022-09-30T06:54:57.815Z,9.20
2022-09-30T06:57:27.670Z,9.20
2022-09-30T06:59:57.304Z,9.10
2022-09-30T07:02:24.482Z,9.10
2022-09-30T07:04:52.373Z,9.20
2022-09-30T07:07:22.337Z,9.50
2022-09-30T07:09:50.368Z,9.50
2022-09-30T07:12:17.388Z,9.50
2022-09-30T07:14:44.429Z,9.50
2022-09-30T07:17:11.303Z,9.60
2022-09-30T07:19:38.595Z,9.70
2022-09-30T07:22:26.418Z,9.60
2022-09-30T07:24:54.256Z,9.70
2022-09-30T07:27:21.530Z,9.80
2022-09-30T07:30:08.213Z,9.90
2022-09-30T07:32:37.794Z,10.00
2022-09-30T07:35:06.261Z,10.10
2022-09-30T07:37:36.061Z,10.00
2022-09-30T07:40:07.658Z,10.10
2022-09-30T07:42:39.263Z,10.20
2022-09-30T07:45:06.520Z,10.30
2022-09-30T07:47:37.473Z,10.40
2022-09-30T07:50:06.032Z,10.50
2022-09-30T07:52:33.437Z,10.60
2022-09-30T07:55:00.221Z,10.70
2022-09-30T07:57:27.195Z,10.90
2022-09-30T07:59:54.013Z,11.00
2022-09-30T08:02:21.001Z,11.10
2022-09-30T08:04:50.508Z,11.20
2022-09-30T08:07:19.495Z,11.30
2022-09-30T08:09:46.403Z,11.50
2022-09-30T08:12:14.446Z,11.50
2022-09-30T08:14:44.873Z,11.50
2022-09-30T08:17:11.818Z,11.50
2022-09-30T08:19:41.351Z,11.50
2022-09-30T08:22:10.565Z,11.60
2022-09-30T08:24:37.407Z,11.50
2022-09-30T08:27:04.618Z,11.60
2022-09-30T08:32:20.501Z,11.70
2022-09-30T08:34:47.348Z,11.80
2022-09-30T08:37:14.175Z,11.90
2022-09-30T08:39:42.484Z,12.10
2022-09-30T08:42:51.767Z,12.20
2022-09-30T08:45:41.503Z,12.30
2022-09-30T08:48:32.434Z,12.40
2022-09-30T08:51:00.874Z,12.60
2022-09-30T08:53:35.438Z,12.60
2022-09-30T08:56:04.522Z,12.70
2022-09-30T08:58:38.888Z,12.80
2022-09-30T09:01:20.000Z,12.90
2022-09-30T09:03:48.514Z,13.00
2022-09-30T09:06:27.349Z,13.10
2022-09-30T09:09:10.182Z,13.20
2022-09-30T09:11:47.545Z,13.40
2022-09-30T09:14:54.913Z,13.50
2022-09-30T09:17:30.761Z,13.70
2022-09-30T09:20:11.100Z,13.60
2022-09-30T09:22:38.703Z,13.50
2022-09-30T09:25:06.213Z,13.50
2022-09-30T09:27:53.121Z,13.50
2022-09-30T09:30:23.606Z,13.60
2022-09-30T09:32:55.334Z,13.70
2022-09-30T09:35:53.305Z,13.70
2022-09-30T09:38:36.426Z,13.80
2022-09-30T09:41:26.352Z,13.80
2022-09-30T09:44:00.436Z,13.90
2022-09-30T09:46:30.645Z,14.00
2022-09-30T09:49:23.429Z,14.10
2022-09-30T09:52:12.581Z,14.30
2022-09-30T09:54:44.003Z,14.40
2022-09-30T09:57:18.203Z,14.40
2022-09-30T10:00:26.844Z,14.40
2022-09-30T10:03:01.272Z,14.50
2022-09-30T10:05:39.609Z,14.70
2022-09-30T10:08:20.939Z,14.70
2022-09-30T10:10:53.743Z,14.60
2022-09-30T10:13:46.337Z,14.70
2022-09-30T10:16:35.581Z,14.70
2022-09-30T10:19:09.423Z,14.90
2022-09-30T10:21:39.149Z,14.90
2022-09-30T10:24:31.134Z,14.90
2022-09-30T10:26:57.949Z,14.90
2022-09-30T10:29:31.559Z,14.90
2022-09-30T10:32:06.474Z,15.00
2022-09-30T10:34:37.632Z,15.00
2022-09-30T10:37:17.023Z,15.00
2022-09-30T10:39:50.519Z,15.10
2022-09-30T10:42:27.161Z,15.10
2022-09-30T10:45:22.455Z,15.20
2022-09-30T10:47:54.125Z,15.40
2022-09-30T10:50:25.126Z,16.00
2022-09-30T10:53:00.755Z,16.40
2022-09-30T10:55:41.805Z,16.60
2022-09-30T10:58:26.764Z,16.80
2022-09-30T11:01:23.917Z,17.70
2022-09-30T11:04:05.543Z,18.10
2022-09-30T11:06:34.686Z,18.30
2022-09-30T11:09:16.655Z,18.80
2022-09-30T11:11:51.226Z,18.90
2022-09-30T11:14:31.066Z,19.00
2022-09-30T11:17:26.098Z,18.70
2022-09-30T11:20:18.764Z,18.90
2022-09-30T11:22:54.711Z,18.30
2022-09-30T11:25:39.843Z,18.60
2022-09-30T11:28:28.718Z,19.60
2022-09-30T11:30:58.513Z,21.00
2022-09-30T11:33:55.203Z,21.00
2022-09-30T11:36:42.763Z,20.90
2022-09-30T11:39:37.574Z,21.10
2022-09-30T11:42:16.280Z,21.60
2022-09-30T11:44:45.325Z,22.30
2022-09-30T11:47:12.214Z,22.80
2022-09-30T11:50:06.794Z,22.00
2022-09-30T11:52:55.279Z,21.30
2022-09-30T11:56:06.293Z,21.30
2022-09-30T11:58:43.477Z,21.00
2022-09-30T12:01:41.389Z,20.60
2022-09-30T12:04:18.285Z,20.50
2022-09-30T12:06:55.226Z,21.40
2022-09-30T12:09:27.123Z,22.20
2022-09-30T12:11:59.297Z,21.80
2022-09-30T12:14:54.480Z,21.80
2022-09-30T12:17:31.376Z,20.60
2022-09-30T12:20:29.574Z,19.50
2022-09-30T12:23:18.149Z,18.50
2022-09-30T12:26:01.158Z,18.00
2022-09-30T12:29:17.863Z,17.80
2022-09-30T12:32:01.310Z,17.50
2022-09-30T12:35:01.772Z,17.80
2022-09-30T12:37:47.461Z,18.30
2022-09-30T12:40:43.767Z,18.00
2022-09-30T12:43:49.706Z,17.70
2022-09-30T12:46:31.936Z,17.50
2022-09-30T12:49:05.166Z,17.60
2022-09-30T12:51:42.377Z,17.80
2022-09-30T12:54:28.249Z,17.80
2022-09-30T12:57:00.494Z,17.80
2022-09-30T12:59:52.669Z,17.80
2022-09-30T13:02:42.631Z,17.60
2022-09-30T13:05:46.223Z,17.50
2022-09-30T13:08:16.183Z,17.60
2022-09-30T13:10:56.254Z,17.70
2022-09-30T13:13:27.808Z,18.10
2022-09-30T13:16:03.573Z,18.60
2022-09-30T13:18:31.593Z,18.80
2022-09-30T13:21:04.604Z,18.50
2022-09-30T13:23:42.210Z,18.20
2022-09-30T13:26:34.275Z,17.80
2022-09-30T13:29:01.463Z,17.80
2022-09-30T13:31:50.618Z,17.90
2022-09-30T13:34:28.106Z,17.80
2022-09-30T13:37:03.891Z,17.80
2022-09-30T13:39:45.889Z,17.50
2022-09-30T13:42:28.123Z,17.40
2022-09-30T13:45:07.125Z,17.30
2022-09-30T13:47:50.036Z,17.30
2022-09-30T13:50:37.957Z,17.30
2022-09-30T13:53:13.271Z,17.30
2022-09-30T13:55:46.673Z,17.20
2022-09-30T13:58:53.866Z,17.10
2022-09-30T14:01:26.269Z,17.20
2022-09-30T14:04:12.328Z,17.10
2022-09-30T14:06:54.338Z,17.20
2022-09-30T14:09:34.474Z,17.40
2022-09-30T14:12:31.746Z,17.50
2022-09-30T14:15:15.996Z,17.60
2022-09-30T14:17:52.422Z,17.60
2022-09-30T14:20:27.610Z,17.50
2022-09-30T14:22:56.657Z,17.40
2022-09-30T14:25:24.001Z,17.50
2022-09-30T14:28:03.686Z,17.40
2022-09-30T14:30:45.235Z,17.40
2022-09-30T14:33:28.131Z,17.50
2022-09-30T14:35:55.221Z,17.30
2022-09-30T14:38:28.024Z,17.30
2022-09-30T14:41:00.786Z,17.20
2022-09-30T14:43:35.928Z,17.20
2022-09-30T14:46:32.314Z,17.30
2022-09-30T14:49:06.164Z,17.30
2022-09-30T14:51:43.463Z,17.30
2022-09-30T14:54:22.685Z,17.30
2022-09-30T14:56:54.729Z,17.30
2022-09-30T14:59:32.610Z,17.10
2022-09-30T15:02:02.915Z,17.00
2022-09-30T15:04:40.123Z,16.90
2022-09-30T15:07:12.506Z,16.90
2022-09-30T15:09:50.860Z,17.00
2022-09-30T15:12:22.709Z,17.10
2022-09-30T15:15:26.544Z,17.10
2022-09-30T15:18:02.548Z,17.20
2022-09-30T15:20:35.559Z,17.30
2022-09-30T15:23:31.247Z,17.10
2022-09-30T15:26:02.410Z,17.00
2022-09-30T15:28:29.610Z,17.00
2022-09-30T15:30:59.377Z,17.00
2022-09-30T15:33:29.111Z,17.10
2022-09-30T15:36:12.046Z,17.00
2022-09-30T15:38:39.252Z,16.90
2022-09-30T15:41:08.939Z,16.90
2022-09-30T15:43:51.090Z,16.80
2022-09-30T15:46:35.234Z,16.70
2022-09-30T15:49:09.114Z,16.50
2022-09-30T15:51:42.375Z,16.60
2022-09-30T15:54:15.266Z,16.70
2022-09-30T15:56:43.731Z,16.50
2022-09-30T15:59:15.028Z,16.40
2022-09-30T16:01:47.035Z,16.30
2022-09-30T16:04:17.528Z,16.30
2022-09-30T16:06:59.911Z,16.30
2022-09-30T16:09:41.717Z,16.20
2022-09-30T16:12:21.354Z,16.10
2022-09-30T16:14:51.155Z,16.10
2022-09-30T16:17:36.202Z,16.00
2022-09-30T16:20:25.240Z,15.90
2022-09-30T16:22:56.034Z,15.90
2022-09-30T16:25:33.816Z,15.70
2022-09-30T16:28:14.111Z,15.70
2022-09-30T16:30:50.454Z,15.70
2022-09-30T16:33:18.553Z,15.60
2022-09-30T16:35:49.814Z,15.60
2022-09-30T16:38:18.808Z,15.60
2022-09-30T16:40:46.118Z,15.60
2022-09-30T16:43:13.142Z,15.50
2022-09-30T16:45:42.625Z,15.50
2022-09-30T16:48:19.251Z,15.50
2022-09-30T16:50:54.422Z,15.40
2022-09-30T16:56:19.915Z,15.40
2022-09-30T16:58:47.916Z,15.30
2022-09-30T17:01:22.865Z,15.30
2022-09-30T17:03:50.270Z,15.20
2022-09-30T17:06:26.334Z,15.20
2022-09-30T17:08:58.120Z,15.20
2022-09-30T17:14:20.009Z,15.10
2022-09-30T17:16:48.174Z,15.10
2022-09-30T17:19:16.098Z,15.00
2022-09-30T17:21:45.198Z,15.00
2022-09-30T17:24:12.073Z,15.00
2022-09-30T17:26:41.045Z,15.00
2022-09-30T17:29:31.434Z,14.90
2022-09-30T17:31:59.072Z,14.80
2022-09-30T17:34:28.259Z,14.90
2022-09-30T17:36:56.679Z,14.80
2022-09-30T17:39:29.664Z,14.80
2022-09-30T17:42:17.089Z,14.80
2022-09-30T17:44:45.045Z,14.70
2022-09-30T17:47:15.019Z,14.70
2022-09-30T17:49:43.024Z,14.70
2022-09-30T17:52:09.984Z,14.60
2022-09-30T17:54:36.775Z,14.70
2022-09-30T17:57:03.786Z,14.70
2022-09-30T17:59:30.717Z,14.50
2022-09-30T18:01:57.672Z,14.50
2022-09-30T18:04:30.722Z,14.50
2022-09-30T18:07:01.086Z,14.50
2022-09-30T18:09:28.859Z,14.50
2022-09-30T18:12:18.493Z,14.50
2022-09-30T18:14:46.503Z,14.50
2022-09-30T18:17:14.422Z,14.50
2022-09-30T18:19:41.344Z,14.50
2022-09-30T18:22:09.508Z,14.40
2022-09-30T18:24:54.813Z,14.40
2022-09-30T18:27:22.875Z,14.30
2022-09-30T18:29:50.892Z,14.40
2022-09-30T18:32:18.768Z,14.50
2022-09-30T18:34:45.638Z,14.40
2022-09-30T18:37:12.500Z,14.40
2022-09-30T18:39:40.409Z,14.40
2022-09-30T18:42:09.441Z,14.40
2022-09-30T18:44:38.119Z,14.30
2022-09-30T18:47:05.895Z,14.30
2022-09-30T18:49:33.786Z,14.40
2022-09-30T18:52:01.815Z,14.40
2022-09-30T18:54:28.684Z,14.40
2022-09-30T18:56:55.863Z,14.40
2022-09-30T18:59:24.750Z,14.40
2022-09-30T19:01:51.850Z,14.40
2022-09-30T19:04:19.953Z,14.30
2022-09-30T19:06:47.730Z,14.30
2022-09-30T19:09:16.715Z,14.30
2022-09-30T19:11:45.153Z,14.20
2022-09-30T19:14:19.400Z,14.20
2022-09-30T19:16:46.533Z,14.30
2022-09-30T19:19:15.353Z,14.20
2022-09-30T19:21:44.665Z,14.20
2022-09-30T19:24:13.069Z,14.20
2022-09-30T19:26:41.422Z,14.20
2022-09-30T19:29:12.524Z,14.30
2022-09-30T19:31:42.879Z,14.20
2022-09-30T19:34:11.678Z,14.20
2022-09-30T19:36:50.285Z,14.20
2022-09-30T19:39:18.977Z,14.30
2022-09-30T19:41:47.362Z,14.30
2022-09-30T19:44:18.809Z,14.30
2022-09-30T19:46:50.952Z,14.20
2022-09-30T19:49:18.712Z,14.20
2022-09-30T19:51:52.858Z,14.20
2022-09-30T19:54:36.926Z,14.20
2022-09-30T19:57:08.105Z,14.30
2022-09-30T19:59:37.041Z,14.30
2022-09-30T20:02:04.967Z,14.30
2022-09-30T20:04:34.508Z,14.30
2022-09-30T20:07:01.424Z,14.30
2022-09-30T20:09:32.990Z,14.20
2022-09-30T20:12:00.239Z,14.20
2022-09-30T20:14:47.828Z,14.20
2022-09-30T20:17:16.151Z,14.20
2022-09-30T20:19:44.030Z,14.20
2022-09-30T20:22:11.970Z,14.30
2022-09-30T20:24:42.126Z,14.40
2022-09-30T20:27:12.314Z,14.30
2022-09-30T20:29:41.214Z,14.40
2022-09-30T20:32:12.318Z,14.40
2022-09-30T20:34:41.957Z,14.40
2022-09-30T20:37:09.828Z,14.40
2022-09-30T20:39:40.695Z,14.40
2022-09-30T20:42:09.578Z,14.50
2022-09-30T20:44:37.924Z,14.50
2022-09-30T20:47:07.806Z,14.40
2022-09-30T20:49:35.781Z,14.50
2022-09-30T20:52:04.009Z,14.50
2022-09-30T20:54:32.562Z,14.50
2022-09-30T20:57:08.894Z,14.50
2022-09-30T20:59:35.923Z,14.50
2022-09-30T21:02:04.939Z,14.50
2022-09-30T21:04:33.184Z,14.50
2022-09-30T21:07:00.234Z,14.60
2022-09-30T21:09:27.141Z,14.50
2022-09-30T21:11:54.344Z,14.40
2022-09-30T21:14:21.290Z,14.40
2022-09-30T21:16:48.335Z,14.40
2022-09-30T21:19:16.733Z,14.20
2022-09-30T21:21:43.546Z,14.10
2022-09-30T21:24:14.454Z,14.00
2022-09-30T21:26:41.322Z,13.90
2022-09-30T21:29:08.415Z,13.80
2022-09-30T21:31:37.831Z,13.70
2022-09-30T21:34:05.968Z,13.60
2022-09-30T21:36:32.879Z,13.50
2022-09-30T21:39:03.372Z,13.30
2022-09-30T21:41:32.866Z,13.30
2022-09-30T21:44:01.363Z,13.20
2022-09-30T21:46:29.620Z,13.10
2022-09-30T21:49:09.775Z,13.00
2022-09-30T21:51:36.908Z,12.90
2022-09-30T21:54:05.349Z,12.80
2022-09-30T21:56:32.300Z,12.70
2022-09-30T21:59:00.256Z,12.70
2022-09-30T22:01:27.303Z,12.60
2022-09-30T22:03:54.388Z,12.60
2022-09-30T22:06:23.105Z,12.50
2022-09-30T22:08:51.872Z,12.50
2022-09-30T22:11:27.313Z,12.40
2022-09-30T22:13:56.471Z,12.50
2022-09-30T22:16:27.581Z,12.40
2022-09-30T22:19:00.393Z,12.40
2022-09-30T22:21:33.138Z,12.30
2022-09-30T22:24:05.679Z,12.20
2022-09-30T22:26:34.229Z,12.20
2022-09-30T22:29:07.605Z,12.20
2022-09-30T22:31:35.099Z,12.10
2022-09-30T22:34:23.705Z,12.00
2022-09-30T22:37:12.426Z,11.90
2022-09-30T22:39:46.854Z,11.90
2022-09-30T22:42:13.824Z,11.80
2022-09-30T22:44:44.475Z,11.80
2022-09-30T22:47:12.172Z,11.70
2022-09-30T22:49:39.127Z,11.70
2022-09-30T22:52:08.457Z,11.60
2022-09-30T22:54:36.380Z,11.60
2022-09-30T22:57:04.503Z,11.60
2022-09-30T22:59:33.981Z,11.70
2022-09-30T23:02:00.836Z,11.60
2022-09-30T23:04:28.199Z,11.60
2022-09-30T23:06:55.810Z,11.60
2022-09-30T23:09:24.123Z,11.60
2022-09-30T23:11:57.003Z,11.60
2022-09-30T23:14:26.404Z,11.60
2022-09-30T23:16:53.599Z,11.50
2022-09-30T23:19:20.777Z,11.60
2022-09-30T23:21:47.916Z,11.50
2022-09-30T23:24:14.967Z,11.50
2022-09-30T23:26:42.243Z,11.60
2022-09-30T23:29:12.765Z,11.60
2022-09-30T23:31:39.956Z,11.50
2022-09-30T23:34:07.768Z,11.60
2022-09-30T23:36:44.589Z,11.50
2022-09-30T23:39:19.504Z,11.50
2022-09-30T23:41:50.484Z,11.40
2022-09-30T23:44:19.269Z,11.50
2022-09-30T23:47:08.300Z,11.50
2022-09-30T23:49:38.961Z,11.50
2022-09-30T23:52:12.640Z,11.30
2022-09-30T23:54:41.275Z,11.30
2022-09-30T23:57:10.684Z,11.30
2022-09-30T23:59:39.603Z,11.30
